Berry, Kentucky
Current Conditions -  °F | °C
As of 4:35 PM on Wednesday 17 Dec 2014 (Local Time) from KFGX Reporting Station
Overcast Overcast  
Wind Chill: -4°   Ceiling: 2000
Heat Index:   Visibility: 10mi
Dew Point: -3°   Wind: 9mph
Humidity: 78%   Direction: 280°W
Pressure: 30.21"   Gusts: NA
Location:  38.52°N, 84.38°W
Report Text: KFGX 172135Z AUTO 28008KT 10SM OVC020 00/M03 A3021 RMK AO2 T00001034
Loading
Personal Weather Stations






























Interactive Weather Map New forecast layout! Learn more

10-Day Weather Forecast

Advertisements
Track Severe Weather on mobile